sensor_id;sensor_type;location;lat;lon;timestamp;P1;durP1;ratioP1;P2;durP2;ratioP2
18879;SDS011;9572;52.378;13.404;2024-02-28T00:02:04;38.50;;;18.07;;
18879;SDS011;9572;52.378;13.404;2024-02-28T00:04:31;40.67;;;19.77;;
18879;SDS011;9572;52.378;13.404;2024-02-28T00:06:58;43.23;;;18.27;;
18879;SDS011;9572;52.378;13.404;2024-02-28T00:09:25;40.00;;;18.53;;
18879;SDS011;9572;52.378;13.404;2024-02-28T00:11:52;41.93;;;17.93;;
18879;SDS011;9572;52.378;13.404;2024-02-28T00:14:19;38.27;;;17.73;;
18879;SDS011;9572;52.378;13.404;2024-02-28T00:16:46;39.77;;;16.27;;
18879;SDS011;9572;52.378;13.404;2024-02-28T00:19:14;37.33;;;16.63;;
18879;SDS011;9572;52.378;13.404;2024-02-28T00:21:42;35.67;;;15.63;;
18879;SDS011;9572;52.378;13.404;2024-02-28T00:24:09;37.27;;;16.87;;
18879;SDS011;9572;52.378;13.404;2024-02-28T00:26:37;37.57;;;16.53;;
18879;SDS011;9572;52.378;13.404;2024-02-28T00:29:06;35.83;;;16.03;;
18879;SDS011;9572;52.378;13.404;2024-02-28T00:31:33;35.17;;;16.73;;
18879;SDS011;9572;52.378;13.404;2024-02-28T00:34:00;35.03;;;16.23;;
18879;SDS011;9572;52.378;13.404;2024-02-28T00:36:28;38.97;;;17.47;;
18879;SDS011;9572;52.378;13.404;2024-02-28T00:38:55;44.17;;;18.17;;
18879;SDS011;9572;52.378;13.404;2024-02-28T00:41:22;42.83;;;19.03;;
18879;SDS011;9572;52.378;13.404;2024-02-28T00:43:48;39.60;;;18.83;;
18879;SDS011;9572;52.378;13.404;2024-02-28T00:46:15;43.23;;;19.13;;
18879;SDS011;9572;52.378;13.404;2024-02-28T00:48:42;37.00;;;17.13;;
18879;SDS011;9572;52.378;13.404;2024-02-28T00:51:09;35.47;;;16.60;;
18879;SDS011;9572;52.378;13.404;2024-02-28T00:53:37;34.20;;;15.60;;
18879;SDS011;9572;52.378;13.404;2024-02-28T00:56:04;48.43;;;18.13;;
18879;SDS011;9572;52.378;13.404;2024-02-28T00:58:32;40.27;;;17.30;;
18879;SDS011;9572;52.378;13.404;2024-02-28T01:00:58;44.33;;;19.60;;
18879;SDS011;9572;52.378;13.404;2024-02-28T01:03:25;43.10;;;20.17;;
18879;SDS011;9572;52.378;13.404;2024-02-28T01:05:52;40.53;;;18.90;;
18879;SDS011;9572;52.378;13.404;2024-02-28T01:08:19;41.30;;;18.03;;
18879;SDS011;9572;52.378;13.404;2024-02-28T01:10:47;35.80;;;16.97;;
18879;SDS011;9572;52.378;13.404;2024-02-28T01:13:15;32.30;;;15.13;;
18879;SDS011;9572;52.378;13.404;2024-02-28T01:15:42;31.27;;;15.50;;
18879;SDS011;9572;52.378;13.404;2024-02-28T01:18:09;33.77;;;14.33;;
18879;SDS011;9572;52.378;13.404;2024-02-28T01:20:36;31.47;;;13.67;;
18879;SDS011;9572;52.378;13.404;2024-02-28T01:23:03;32.43;;;14.97;;
18879;SDS011;9572;52.378;13.404;2024-02-28T01:25:30;35.23;;;14.63;;
18879;SDS011;9572;52.378;13.404;2024-02-28T01:27:58;35.07;;;15.03;;
18879;SDS011;9572;52.378;13.404;2024-02-28T01:30:25;35.00;;;14.50;;
18879;SDS011;9572;52.378;13.404;2024-02-28T01:32:52;33.63;;;14.37;;
18879;SDS011;9572;52.378;13.404;2024-02-28T01:35:19;32.23;;;15.00;;
18879;SDS011;9572;52.378;13.404;2024-02-28T01:37:47;34.97;;;13.97;;
18879;SDS011;9572;52.378;13.404;2024-02-28T01:40:14;32.43;;;14.80;;
18879;SDS011;9572;52.378;13.404;2024-02-28T01:42:41;35.17;;;15.60;;
18879;SDS011;9572;52.378;13.404;2024-02-28T01:45:10;33.53;;;13.47;;
18879;SDS011;9572;52.378;13.404;2024-02-28T01:47:39;36.23;;;15.07;;
18879;SDS011;9572;52.378;13.404;2024-02-28T01:50:07;32.00;;;15.10;;
18879;SDS011;9572;52.378;13.404;2024-02-28T01:52:35;34.50;;;15.63;;
18879;SDS011;9572;52.378;13.404;2024-02-28T01:55:03;35.73;;;16.60;;
18879;SDS011;9572;52.378;13.404;2024-02-28T01:57:31;39.77;;;17.30;;
18879;SDS011;9572;52.378;13.404;2024-02-28T02:00:00;40.53;;;18.37;;
18879;SDS011;9572;52.378;13.404;2024-02-28T02:02:28;43.17;;;19.40;;
18879;SDS011;9572;52.378;13.404;2024-02-28T02:04:55;42.27;;;17.23;;
18879;SDS011;9572;52.378;13.404;2024-02-28T02:07:23;43.87;;;19.03;;
18879;SDS011;9572;52.378;13.404;2024-02-28T02:09:51;40.50;;;17.60;;
18879;SDS011;9572;52.378;13.404;2024-02-28T02:12:18;38.77;;;17.77;;
18879;SDS011;9572;52.378;13.404;2024-02-28T02:14:47;37.40;;;16.63;;
18879;SDS011;9572;52.378;13.404;2024-02-28T02:17:14;37.37;;;16.93;;
18879;SDS011;9572;52.378;13.404;2024-02-28T02:19:42;39.30;;;17.67;;
18879;SDS011;9572;52.378;13.404;2024-02-28T02:22:10;40.13;;;17.33;;
18879;SDS011;9572;52.378;13.404;2024-02-28T02:24:41;34.73;;;16.80;;
18879;SDS011;9572;52.378;13.404;2024-02-28T02:27:08;37.23;;;16.63;;
18879;SDS011;9572;52.378;13.404;2024-02-28T02:29:35;38.90;;;16.53;;
18879;SDS011;9572;52.378;13.404;2024-02-28T02:32:02;33.90;;;15.70;;
18879;SDS011;9572;52.378;13.404;2024-02-28T02:34:29;36.10;;;15.97;;
18879;SDS011;9572;52.378;13.404;2024-02-28T02:36:57;38.70;;;16.60;;
18879;SDS011;9572;52.378;13.404;2024-02-28T02:39:23;36.63;;;16.03;;
18879;SDS011;9572;52.378;13.404;2024-02-28T02:41:52;36.60;;;16.03;;
18879;SDS011;9572;52.378;13.404;2024-02-28T02:44:18;43.60;;;17.53;;
18879;SDS011;9572;52.378;13.404;2024-02-28T02:46:45;35.00;;;15.60;;
18879;SDS011;9572;52.378;13.404;2024-02-28T02:49:13;34.83;;;15.87;;
18879;SDS011;9572;52.378;13.404;2024-02-28T02:51:40;35.97;;;15.60;;
18879;SDS011;9572;52.378;13.404;2024-02-28T02:54:08;34.27;;;16.03;;
18879;SDS011;9572;52.378;13.404;2024-02-28T02:56:35;35.47;;;14.47;;
18879;SDS011;9572;52.378;13.404;2024-02-28T02:59:03;37.13;;;15.17;;
18879;SDS011;9572;52.378;13.404;2024-02-28T03:01:30;38.17;;;16.97;;
18879;SDS011;9572;52.378;13.404;2024-02-28T03:03:57;44.73;;;17.53;;
18879;SDS011;9572;52.378;13.404;2024-02-28T03:06:24;36.83;;;16.37;;
18879;SDS011;9572;52.378;13.404;2024-02-28T03:08:51;38.67;;;16.27;;
18879;SDS011;9572;52.378;13.404;2024-02-28T03:11:18;35.40;;;14.80;;
18879;SDS011;9572;52.378;13.404;2024-02-28T03:13:44;34.23;;;14.60;;
18879;SDS011;9572;52.378;13.404;2024-02-28T03:16:13;35.40;;;14.70;;
18879;SDS011;9572;52.378;13.404;2024-02-28T03:18:40;33.07;;;14.17;;
18879;SDS011;9572;52.378;13.404;2024-02-28T03:21:07;28.97;;;12.93;;
18879;SDS011;9572;52.378;13.404;2024-02-28T03:23:33;31.67;;;12.70;;
18879;SDS011;9572;52.378;13.404;2024-02-28T03:26:01;26.67;;;12.30;;
18879;SDS011;9572;52.378;13.404;2024-02-28T03:28:29;29.67;;;12.17;;
18879;SDS011;9572;52.378;13.404;2024-02-28T03:30:55;24.73;;;11.10;;
18879;SDS011;9572;52.378;13.404;2024-02-28T03:33:24;24.97;;;11.93;;
18879;SDS011;9572;52.378;13.404;2024-02-28T03:35:51;26.63;;;10.97;;
18879;SDS011;9572;52.378;13.404;2024-02-28T03:38:18;26.40;;;10.63;;
18879;SDS011;9572;52.378;13.404;2024-02-28T03:40:44;21.20;;;10.70;;
18879;SDS011;9572;52.378;13.404;2024-02-28T03:43:11;26.67;;;11.13;;
18879;SDS011;9572;52.378;13.404;2024-02-28T03:45:39;21.30;;;10.33;;
18879;SDS011;9572;52.378;13.404;2024-02-28T03:48:06;20.93;;;9.10;;
18879;SDS011;9572;52.378;13.404;2024-02-28T03:50:34;19.70;;;8.70;;
18879;SDS011;9572;52.378;13.404;2024-02-28T03:53:02;13.80;;;7.87;;
18879;SDS011;9572;52.378;13.404;2024-02-28T03:55:30;18.90;;;7.60;;
18879;SDS011;9572;52.378;13.404;2024-02-28T03:57:57;17.17;;;7.90;;
18879;SDS011;9572;52.378;13.404;2024-02-28T04:00:24;12.23;;;6.53;;
18879;SDS011;9572;52.378;13.404;2024-02-28T04:02:51;12.83;;;6.47;;
18879;SDS011;9572;52.378;13.404;2024-02-28T04:05:18;11.70;;;6.77;;
18879;SDS011;9572;52.378;13.404;2024-02-28T04:07:46;13.47;;;6.47;;
18879;SDS011;9572;52.378;13.404;2024-02-28T04:10:13;13.33;;;6.30;;
18879;SDS011;9572;52.378;13.404;2024-02-28T04:12:42;11.70;;;6.50;;
18879;SDS011;9572;52.378;13.404;2024-02-28T04:15:09;10.77;;;6.33;;
18879;SDS011;9572;52.378;13.404;2024-02-28T04:17:37;13.77;;;6.57;;
18879;SDS011;9572;52.378;13.404;2024-02-28T04:20:07;11.70;;;5.97;;
18879;SDS011;9572;52.378;13.404;2024-02-28T04:22:35;13.40;;;6.83;;
18879;SDS011;9572;52.378;13.404;2024-02-28T04:25:03;13.43;;;6.90;;
18879;SDS011;9572;52.378;13.404;2024-02-28T04:27:30;12.47;;;6.53;;
18879;SDS011;9572;52.378;13.404;2024-02-28T04:29:57;12.57;;;6.40;;
18879;SDS011;9572;52.378;13.404;2024-02-28T04:32:24;13.20;;;7.17;;
18879;SDS011;9572;52.378;13.404;2024-02-28T04:34:51;19.10;;;7.00;;
18879;SDS011;9572;52.378;13.404;2024-02-28T04:37:18;13.20;;;6.90;;
18879;SDS011;9572;52.378;13.404;2024-02-28T04:39:45;15.47;;;7.67;;
18879;SDS011;9572;52.378;13.404;2024-02-28T04:42:13;15.23;;;7.50;;
18879;SDS011;9572;52.378;13.404;2024-02-28T04:44:41;15.10;;;7.73;;
18879;SDS011;9572;52.378;13.404;2024-02-28T04:47:08;14.03;;;7.87;;
18879;SDS011;9572;52.378;13.404;2024-02-28T04:49:36;13.67;;;7.87;;
18879;SDS011;9572;52.378;13.404;2024-02-28T04:52:03;19.63;;;9.30;;
18879;SDS011;9572;52.378;13.404;2024-02-28T04:54:31;19.87;;;9.17;;
18879;SDS011;9572;52.378;13.404;2024-02-28T04:56:58;15.70;;;7.90;;
18879;SDS011;9572;52.378;13.404;2024-02-28T04:59:26;16.37;;;7.93;;
18879;SDS011;9572;52.378;13.404;2024-02-28T05:01:53;14.97;;;8.20;;
18879;SDS011;9572;52.378;13.404;2024-02-28T05:04:20;12.60;;;7.10;;
18879;SDS011;9572;52.378;13.404;2024-02-28T05:06:47;17.47;;;7.73;;
18879;SDS011;9572;52.378;13.404;2024-02-28T05:09:14;14.83;;;7.23;;
18879;SDS011;9572;52.378;13.404;2024-02-28T05:11:41;13.47;;;7.47;;
18879;SDS011;9572;52.378;13.404;2024-02-28T05:14:09;15.13;;;7.07;;
18879;SDS011;9572;52.378;13.404;2024-02-28T05:16:37;14.57;;;7.67;;
18879;SDS011;9572;52.378;13.404;2024-02-28T05:19:05;16.03;;;7.50;;
18879;SDS011;9572;52.378;13.404;2024-02-28T05:21:31;15.27;;;7.70;;
18879;SDS011;9572;52.378;13.404;2024-02-28T05:24:05;14.40;;;7.63;;
18879;SDS011;9572;52.378;13.404;2024-02-28T05:26:33;15.57;;;7.97;;
18879;SDS011;9572;52.378;13.404;2024-02-28T05:29:00;16.17;;;7.30;;
18879;SDS011;9572;52.378;13.404;2024-02-28T05:31:28;16.53;;;7.97;;
18879;SDS011;9572;52.378;13.404;2024-02-28T05:33:58;14.93;;;8.20;;
18879;SDS011;9572;52.378;13.404;2024-02-28T05:36:26;14.20;;;7.97;;
18879;SDS011;9572;52.378;13.404;2024-02-28T05:38:54;17.93;;;9.43;;
18879;SDS011;9572;52.378;13.404;2024-02-28T05:41:22;15.23;;;7.97;;
18879;SDS011;9572;52.378;13.404;2024-02-28T05:43:49;16.90;;;9.37;;
18879;SDS011;9572;52.378;13.404;2024-02-28T05:46:16;14.90;;;8.43;;
18879;SDS011;9572;52.378;13.404;2024-02-28T05:48:44;14.97;;;8.40;;
18879;SDS011;9572;52.378;13.404;2024-02-28T05:51:12;17.43;;;8.07;;
18879;SDS011;9572;52.378;13.404;2024-02-28T05:53:40;16.57;;;8.60;;
18879;SDS011;9572;52.378;13.404;2024-02-28T05:56:07;18.83;;;9.10;;
18879;SDS011;9572;52.378;13.404;2024-02-28T05:58:39;17.53;;;8.97;;
18879;SDS011;9572;52.378;13.404;2024-02-28T06:01:06;14.57;;;8.40;;
18879;SDS011;9572;52.378;13.404;2024-02-28T06:03:34;16.27;;;8.73;;
18879;SDS011;9572;52.378;13.404;2024-02-28T06:06:01;20.93;;;8.70;;
18879;SDS011;9572;52.378;13.404;2024-02-28T06:08:31;15.30;;;8.40;;
18879;SDS011;9572;52.378;13.404;2024-02-28T06:10:58;16.90;;;8.80;;
18879;SDS011;9572;52.378;13.404;2024-02-28T06:13:25;15.53;;;7.93;;
18879;SDS011;9572;52.378;13.404;2024-02-28T06:15:53;14.47;;;8.10;;
18879;SDS011;9572;52.378;13.404;2024-02-28T06:18:20;14.17;;;7.23;;
18879;SDS011;9572;52.378;13.404;2024-02-28T06:20:48;15.83;;;7.93;;
18879;SDS011;9572;52.378;13.404;2024-02-28T06:23:15;15.13;;;7.83;;
18879;SDS011;9572;52.378;13.404;2024-02-28T06:25:43;15.03;;;7.80;;
18879;SDS011;9572;52.378;13.404;2024-02-28T06:28:10;16.43;;;8.13;;
18879;SDS011;9572;52.378;13.404;2024-02-28T06:30:37;14.27;;;7.90;;
18879;SDS011;9572;52.378;13.404;2024-02-28T06:33:04;14.93;;;7.30;;
18879;SDS011;9572;52.378;13.404;2024-02-28T06:35:31;14.40;;;7.70;;
18879;SDS011;9572;52.378;13.404;2024-02-28T06:37:58;11.43;;;6.70;;
18879;SDS011;9572;52.378;13.404;2024-02-28T06:40:25;12.17;;;7.50;;
18879;SDS011;9572;52.378;13.404;2024-02-28T06:42:53;13.37;;;7.10;;
18879;SDS011;9572;52.378;13.404;2024-02-28T06:45:20;11.50;;;6.50;;
18879;SDS011;9572;52.378;13.404;2024-02-28T06:47:46;9.43;;;5.83;;
18879;SDS011;9572;52.378;13.404;2024-02-28T06:50:13;12.80;;;6.23;;
18879;SDS011;9572;52.378;13.404;2024-02-28T06:52:41;12.40;;;6.43;;
18879;SDS011;9572;52.378;13.404;2024-02-28T06:55:07;13.33;;;6.80;;
18879;SDS011;9572;52.378;13.404;2024-02-28T06:57:36;10.77;;;6.23;;
18879;SDS011;9572;52.378;13.404;2024-02-28T07:00:06;11.83;;;6.63;;
18879;SDS011;9572;52.378;13.404;2024-02-28T07:02:34;13.07;;;6.90;;
18879;SDS011;9572;52.378;13.404;2024-02-28T07:05:01;13.33;;;6.27;;
18879;SDS011;9572;52.378;13.404;2024-02-28T07:07:29;11.33;;;6.67;;
18879;SDS011;9572;52.378;13.404;2024-02-28T07:09:56;13.37;;;7.13;;
18879;SDS011;9572;52.378;13.404;2024-02-28T07:12:23;12.70;;;7.03;;
18879;SDS011;9572;52.378;13.404;2024-02-28T07:14:50;11.43;;;7.00;;
18879;SDS011;9572;52.378;13.404;2024-02-28T07:17:19;12.47;;;7.20;;
18879;SDS011;9572;52.378;13.404;2024-02-28T07:19:46;14.10;;;7.40;;
18879;SDS011;9572;52.378;13.404;2024-02-28T07:22:13;12.80;;;6.07;;
18879;SDS011;9572;52.378;13.404;2024-02-28T07:24:39;9.77;;;6.33;;
18879;SDS011;9572;52.378;13.404;2024-02-28T07:27:06;11.53;;;6.43;;
18879;SDS011;9572;52.378;13.404;2024-02-28T07:29:33;12.67;;;6.40;;
18879;SDS011;9572;52.378;13.404;2024-02-28T07:32:02;11.00;;;5.70;;
18879;SDS011;9572;52.378;13.404;2024-02-28T07:34:31;12.03;;;6.53;;
18879;SDS011;9572;52.378;13.404;2024-02-28T07:36:58;9.77;;;5.60;;
18879;SDS011;9572;52.378;13.404;2024-02-28T07:39:25;10.70;;;6.07;;
18879;SDS011;9572;52.378;13.404;2024-02-28T07:41:52;10.47;;;5.77;;
18879;SDS011;9572;52.378;13.404;2024-02-28T07:44:19;10.70;;;5.87;;
18879;SDS011;9572;52.378;13.404;2024-02-28T07:46:46;10.60;;;5.93;;
18879;SDS011;9572;52.378;13.404;2024-02-28T07:49:13;9.90;;;5.70;;
18879;SDS011;9572;52.378;13.404;2024-02-28T07:51:41;9.27;;;5.13;;
18879;SDS011;9572;52.378;13.404;2024-02-28T07:54:08;9.83;;;5.40;;
18879;SDS011;9572;52.378;13.404;2024-02-28T07:56:35;9.80;;;5.33;;
18879;SDS011;9572;52.378;13.404;2024-02-28T07:59:02;11.13;;;5.97;;
18879;SDS011;9572;52.378;13.404;2024-02-28T08:01:29;10.63;;;6.17;;
18879;SDS011;9572;52.378;13.404;2024-02-28T08:03:56;11.67;;;6.60;;
18879;SDS011;9572;52.378;13.404;2024-02-28T08:06:24;12.10;;;6.73;;
18879;SDS011;9572;52.378;13.404;2024-02-28T08:08:52;8.13;;;5.83;;
18879;SDS011;9572;52.378;13.404;2024-02-28T08:11:19;10.33;;;6.50;;
18879;SDS011;9572;52.378;13.404;2024-02-28T08:13:46;13.33;;;6.93;;
18879;SDS011;9572;52.378;13.404;2024-02-28T08:16:13;12.77;;;7.37;;
18879;SDS011;9572;52.378;13.404;2024-02-28T08:18:40;11.60;;;6.40;;
18879;SDS011;9572;52.378;13.404;2024-02-28T08:21:07;11.20;;;6.20;;
18879;SDS011;9572;52.378;13.404;2024-02-28T08:23:35;9.40;;;5.93;;
18879;SDS011;9572;52.378;13.404;2024-02-28T08:26:03;12.27;;;6.23;;
18879;SDS011;9572;52.378;13.404;2024-02-28T08:28:30;11.63;;;6.00;;
18879;SDS011;9572;52.378;13.404;2024-02-28T08:30:57;12.03;;;6.17;;
18879;SDS011;9572;52.378;13.404;2024-02-28T08:33:25;9.90;;;5.53;;
18879;SDS011;9572;52.378;13.404;2024-02-28T08:35:51;13.27;;;6.50;;
18879;SDS011;9572;52.378;13.404;2024-02-28T08:38:19;11.73;;;6.53;;
18879;SDS011;9572;52.378;13.404;2024-02-28T08:40:45;15.13;;;7.77;;
18879;SDS011;9572;52.378;13.404;2024-02-28T08:43:14;11.67;;;7.07;;
18879;SDS011;9572;52.378;13.404;2024-02-28T08:45:40;13.07;;;6.33;;
18879;SDS011;9572;52.378;13.404;2024-02-28T08:48:07;11.73;;;6.37;;
18879;SDS011;9572;52.378;13.404;2024-02-28T08:50:34;13.83;;;6.97;;
18879;SDS011;9572;52.378;13.404;2024-02-28T08:53:01;11.10;;;6.23;;
18879;SDS011;9572;52.378;13.404;2024-02-28T08:55:29;13.20;;;6.40;;
18879;SDS011;9572;52.378;13.404;2024-02-28T08:57:56;12.23;;;6.03;;
18879;SDS011;9572;52.378;13.404;2024-02-28T09:00:24;10.50;;;5.83;;
18879;SDS011;9572;52.378;13.404;2024-02-28T09:02:51;13.00;;;6.00;;
18879;SDS011;9572;52.378;13.404;2024-02-28T09:05:18;14.80;;;6.93;;
18879;SDS011;9572;52.378;13.404;2024-02-28T09:07:45;11.97;;;7.60;;
18879;SDS011;9572;52.378;13.404;2024-02-28T09:10:16;18.80;;;7.60;;
18879;SDS011;9572;52.378;13.404;2024-02-28T09:12:46;15.07;;;7.80;;
18879;SDS011;9572;52.378;13.404;2024-02-28T09:15:13;17.27;;;8.77;;
18879;SDS011;9572;52.378;13.404;2024-02-28T09:17:41;15.20;;;7.73;;
18879;SDS011;9572;52.378;13.404;2024-02-28T09:20:08;18.07;;;8.50;;
18879;SDS011;9572;52.378;13.404;2024-02-28T09:22:37;19.67;;;8.40;;
18879;SDS011;9572;52.378;13.404;2024-02-28T09:25:05;16.40;;;8.27;;
18879;SDS011;9572;52.378;13.404;2024-02-28T09:27:33;16.00;;;8.37;;
18879;SDS011;9572;52.378;13.404;2024-02-28T09:30:01;16.13;;;8.43;;
18879;SDS011;9572;52.378;13.404;2024-02-28T09:32:28;15.33;;;7.90;;
18879;SDS011;9572;52.378;13.404;2024-02-28T09:34:56;15.70;;;7.83;;
18879;SDS011;9572;52.378;13.404;2024-02-28T09:37:23;15.83;;;8.33;;
18879;SDS011;9572;52.378;13.404;2024-02-28T09:39:50;15.20;;;8.53;;
18879;SDS011;9572;52.378;13.404;2024-02-28T09:42:17;21.30;;;9.10;;
18879;SDS011;9572;52.378;13.404;2024-02-28T09:44:45;18.07;;;8.80;;
18879;SDS011;9572;52.378;13.404;2024-02-28T09:47:13;15.27;;;8.50;;
18879;SDS011;9572;52.378;13.404;2024-02-28T09:49:40;17.20;;;9.00;;
18879;SDS011;9572;52.378;13.404;2024-02-28T09:52:09;18.53;;;9.37;;
18879;SDS011;9572;52.378;13.404;2024-02-28T09:54:36;16.57;;;8.77;;
18879;SDS011;9572;52.378;13.404;2024-02-28T09:57:04;19.67;;;9.37;;
18879;SDS011;9572;52.378;13.404;2024-02-28T09:59:31;16.30;;;9.50;;
18879;SDS011;9572;52.378;13.404;2024-02-28T10:01:58;20.27;;;9.70;;
18879;SDS011;9572;52.378;13.404;2024-02-28T10:04:28;20.53;;;10.00;;
18879;SDS011;9572;52.378;13.404;2024-02-28T10:06:55;19.60;;;10.57;;
18879;SDS011;9572;52.378;13.404;2024-02-28T10:09:24;23.43;;;11.10;;
18879;SDS011;9572;52.378;13.404;2024-02-28T10:11:51;19.80;;;10.60;;
18879;SDS011;9572;52.378;13.404;2024-02-28T10:14:18;20.93;;;10.43;;
18879;SDS011;9572;52.378;13.404;2024-02-28T10:16:45;19.10;;;9.90;;
18879;SDS011;9572;52.378;13.404;2024-02-28T10:19:12;22.10;;;10.63;;
18879;SDS011;9572;52.378;13.404;2024-02-28T10:21:39;22.80;;;11.07;;
18879;SDS011;9572;52.378;13.404;2024-02-28T10:24:06;19.47;;;10.17;;
18879;SDS011;9572;52.378;13.404;2024-02-28T10:26:41;19.67;;;10.37;;
18879;SDS011;9572;52.378;13.404;2024-02-28T10:29:08;25.47;;;11.60;;
18879;SDS011;9572;52.378;13.404;2024-02-28T10:31:35;23.97;;;11.57;;
18879;SDS011;9572;52.378;13.404;2024-02-28T10:34:02;22.80;;;11.60;;
18879;SDS011;9572;52.378;13.404;2024-02-28T10:36:31;21.03;;;10.80;;
18879;SDS011;9572;52.378;13.404;2024-02-28T10:38:59;21.33;;;11.10;;
18879;SDS011;9572;52.378;13.404;2024-02-28T10:41:27;23.43;;;11.00;;
18879;SDS011;9572;52.378;13.404;2024-02-28T10:43:57;23.13;;;11.43;;
18879;SDS011;9572;52.378;13.404;2024-02-28T10:46:25;20.80;;;11.40;;
18879;SDS011;9572;52.378;13.404;2024-02-28T10:48:52;19.73;;;10.93;;
18879;SDS011;9572;52.378;13.404;2024-02-28T10:51:20;20.93;;;10.97;;
18879;SDS011;9572;52.378;13.404;2024-02-28T10:53:51;22.83;;;11.37;;
18879;SDS011;9572;52.378;13.404;2024-02-28T10:56:23;19.87;;;10.27;;
18879;SDS011;9572;52.378;13.404;2024-02-28T10:58:52;22.50;;;10.80;;
18879;SDS011;9572;52.378;13.404;2024-02-28T11:01:25;20.60;;;11.53;;
18879;SDS011;9572;52.378;13.404;2024-02-28T11:03:52;23.67;;;11.37;;
18879;SDS011;9572;52.378;13.404;2024-02-28T11:06:20;17.87;;;10.77;;
18879;SDS011;9572;52.378;13.404;2024-02-28T11:08:48;22.30;;;11.87;;
18879;SDS011;9572;52.378;13.404;2024-02-28T11:11:18;24.70;;;11.47;;
18879;SDS011;9572;52.378;13.404;2024-02-28T11:13:52;23.47;;;11.57;;
18879;SDS011;9572;52.378;13.404;2024-02-28T11:16:27;20.60;;;10.37;;
18879;SDS011;9572;52.378;13.404;2024-02-28T11:18:54;18.90;;;10.37;;
18879;SDS011;9572;52.378;13.404;2024-02-28T11:21:22;21.23;;;11.10;;
18879;SDS011;9572;52.378;13.404;2024-02-28T11:23:51;19.67;;;11.07;;
18879;SDS011;9572;52.378;13.404;2024-02-28T11:26:18;22.53;;;11.13;;
18879;SDS011;9572;52.378;13.404;2024-02-28T11:28:46;21.97;;;11.43;;
18879;SDS011;9572;52.378;13.404;2024-02-28T11:31:14;20.60;;;11.40;;
18879;SDS011;9572;52.378;13.404;2024-02-28T11:33:42;23.23;;;11.93;;
18879;SDS011;9572;52.378;13.404;2024-02-28T11:36:10;24.17;;;11.57;;
18879;SDS011;9572;52.378;13.404;2024-02-28T11:38:39;21.40;;;10.83;;
18879;SDS011;9572;52.378;13.404;2024-02-28T11:41:07;22.37;;;11.07;;
18879;SDS011;9572;52.378;13.404;2024-02-28T11:43:34;20.60;;;11.20;;
18879;SDS011;9572;52.378;13.404;2024-02-28T11:46:01;21.43;;;11.53;;
18879;SDS011;9572;52.378;13.404;2024-02-28T11:48:34;20.23;;;10.17;;
18879;SDS011;9572;52.378;13.404;2024-02-28T11:51:02;19.13;;;10.70;;
18879;SDS011;9572;52.378;13.404;2024-02-28T11:53:29;23.20;;;10.63;;
18879;SDS011;9572;52.378;13.404;2024-02-28T11:55:56;19.30;;;10.77;;
18879;SDS011;9572;52.378;13.404;2024-02-28T11:58:23;19.53;;;11.20;;
18879;SDS011;9572;52.378;13.404;2024-02-28T12:00:51;17.83;;;9.40;;
18879;SDS011;9572;52.378;13.404;2024-02-28T12:03:22;19.57;;;10.37;;
18879;SDS011;9572;52.378;13.404;2024-02-28T12:05:50;17.10;;;9.10;;
18879;SDS011;9572;52.378;13.404;2024-02-28T12:08:19;17.37;;;10.17;;
18879;SDS011;9572;52.378;13.404;2024-02-28T12:10:46;16.20;;;8.63;;
18879;SDS011;9572;52.378;13.404;2024-02-28T12:13:15;20.53;;;10.80;;
18879;SDS011;9572;52.378;13.404;2024-02-28T12:15:43;18.40;;;10.17;;
18879;SDS011;9572;52.378;13.404;2024-02-28T12:18:11;17.13;;;9.33;;
18879;SDS011;9572;52.378;13.404;2024-02-28T12:20:38;17.90;;;10.03;;
18879;SDS011;9572;52.378;13.404;2024-02-28T12:23:04;22.27;;;10.17;;
18879;SDS011;9572;52.378;13.404;2024-02-28T12:25:34;16.97;;;9.13;;
18879;SDS011;9572;52.378;13.404;2024-02-28T12:28:01;16.03;;;8.77;;
18879;SDS011;9572;52.378;13.404;2024-02-28T12:30:30;16.77;;;9.23;;
18879;SDS011;9572;52.378;13.404;2024-02-28T12:32:57;16.73;;;9.27;;
18879;SDS011;9572;52.378;13.404;2024-02-28T12:35:25;17.70;;;9.70;;
18879;SDS011;9572;52.378;13.404;2024-02-28T12:37:52;19.50;;;9.63;;
18879;SDS011;9572;52.378;13.404;2024-02-28T12:40:18;15.93;;;8.63;;
18879;SDS011;9572;52.378;13.404;2024-02-28T12:42:47;16.73;;;9.53;;
18879;SDS011;9572;52.378;13.404;2024-02-28T12:45:14;15.93;;;8.93;;
18879;SDS011;9572;52.378;13.404;2024-02-28T12:47:40;15.57;;;8.67;;
18879;SDS011;9572;52.378;13.404;2024-02-28T12:50:08;14.03;;;8.00;;
18879;SDS011;9572;52.378;13.404;2024-02-28T12:52:36;15.57;;;8.63;;
18879;SDS011;9572;52.378;13.404;2024-02-28T12:55:03;17.73;;;9.43;;
18879;SDS011;9572;52.378;13.404;2024-02-28T12:57:30;17.20;;;8.97;;
18879;SDS011;9572;52.378;13.404;2024-02-28T12:59:58;18.30;;;8.33;;
18879;SDS011;9572;52.378;13.404;2024-02-28T13:02:25;18.33;;;9.40;;
18879;SDS011;9572;52.378;13.404;2024-02-28T13:04:52;18.50;;;8.97;;
18879;SDS011;9572;52.378;13.404;2024-02-28T13:07:19;15.37;;;8.70;;
18879;SDS011;9572;52.378;13.404;2024-02-28T13:09:47;15.90;;;8.50;;
18879;SDS011;9572;52.378;13.404;2024-02-28T13:12:15;17.33;;;9.03;;
18879;SDS011;9572;52.378;13.404;2024-02-28T13:14:42;17.80;;;8.97;;
18879;SDS011;9572;52.378;13.404;2024-02-28T13:17:10;19.07;;;8.47;;
18879;SDS011;9572;52.378;13.404;2024-02-28T13:19:37;15.10;;;8.63;;
18879;SDS011;9572;52.378;13.404;2024-02-28T13:22:04;13.30;;;8.33;;
18879;SDS011;9572;52.378;13.404;2024-02-28T13:24:31;12.80;;;7.80;;
18879;SDS011;9572;52.378;13.404;2024-02-28T13:27:00;13.37;;;7.40;;
18879;SDS011;9572;52.378;13.404;2024-02-28T13:29:27;15.57;;;8.50;;
18879;SDS011;9572;52.378;13.404;2024-02-28T13:31:54;13.87;;;8.03;;
18879;SDS011;9572;52.378;13.404;2024-02-28T13:34:22;15.97;;;8.37;;
18879;SDS011;9572;52.378;13.404;2024-02-28T13:36:49;15.17;;;8.23;;
18879;SDS011;9572;52.378;13.404;2024-02-28T13:39:16;15.73;;;8.43;;
18879;SDS011;9572;52.378;13.404;2024-02-28T13:41:43;16.73;;;8.93;;
18879;SDS011;9572;52.378;13.404;2024-02-28T13:44:10;15.87;;;8.33;;
18879;SDS011;9572;52.378;13.404;2024-02-28T13:46:37;15.53;;;8.53;;
18879;SDS011;9572;52.378;13.404;2024-02-28T13:49:06;15.53;;;9.10;;
18879;SDS011;9572;52.378;13.404;2024-02-28T13:51:34;16.40;;;8.20;;
18879;SDS011;9572;52.378;13.404;2024-02-28T13:54:02;17.43;;;8.80;;
18879;SDS011;9572;52.378;13.404;2024-02-28T13:56:29;13.83;;;7.90;;
18879;SDS011;9572;52.378;13.404;2024-02-28T13:58:56;13.60;;;8.27;;
18879;SDS011;9572;52.378;13.404;2024-02-28T14:01:23;14.93;;;8.60;;
18879;SDS011;9572;52.378;13.404;2024-02-28T14:03:50;14.37;;;8.73;;
18879;SDS011;9572;52.378;13.404;2024-02-28T14:06:17;16.20;;;8.83;;
18879;SDS011;9572;52.378;13.404;2024-02-28T14:08:45;14.93;;;9.03;;
18879;SDS011;9572;52.378;13.404;2024-02-28T14:11:12;14.53;;;8.97;;
18879;SDS011;9572;52.378;13.404;2024-02-28T14:13:41;13.43;;;8.20;;
18879;SDS011;9572;52.378;13.404;2024-02-28T14:16:08;16.43;;;9.07;;
18879;SDS011;9572;52.378;13.404;2024-02-28T14:18:35;13.97;;;8.90;;
18879;SDS011;9572;52.378;13.404;2024-02-28T14:21:02;17.87;;;9.30;;
18879;SDS011;9572;52.378;13.404;2024-02-28T14:23:29;12.90;;;8.00;;
18879;SDS011;9572;52.378;13.404;2024-02-28T14:25:58;18.17;;;9.13;;
18879;SDS011;9572;52.378;13.404;2024-02-28T14:28:25;15.80;;;9.10;;
18879;SDS011;9572;52.378;13.404;2024-02-28T14:30:52;15.23;;;8.63;;